1XS0 weather

CLOSED Double U Ranch Airport
Spring Branch, Texas, United States

Public forecast

Using degrees Fahrenheit for public forecast. Weather courtesy of forecast.io.

METAR (pilot weather report)

Closest report is Boerne Stage Field, 16.3 nm (30.2 km) SW. Retrieved 2019/07/21 22:35 UTC (0 seconds ago):

K5C1 212235Z AUTO 18008KT 10SM SCT060 33/18 A2994 RMK AO1

TAF (pilot weather forecast)

Closest forecast is San Antonio International Airport, 23.3 nm (43.2 km) S. Retrieved 2019/07/21 18:42 UTC (4 hours ago):

TAF KSAT 211739Z 2118/2224 16011KT P6SM FEW040 BKN250 FM221000 20005KT P6SM FEW008 BKN015 FM221400 15006KT P6SM FEW045 SCT250